createdAt,value
2019-04-10T00:03:02.085Z,102137.88
2019-04-10T00:06:09.751Z,102143.38
2019-04-10T00:09:16.912Z,102143.98
2019-04-10T00:12:25.426Z,102144.33
2019-04-10T00:15:32.709Z,102150.20
2019-04-10T00:18:40.089Z,102143.13
2019-04-10T00:21:47.340Z,102151.43
2019-04-10T00:24:54.568Z,102145.30
2019-04-10T00:28:01.227Z,102149.33
2019-04-10T00:31:07.585Z,102161.43
2019-04-10T00:34:13.932Z,102155.69
2019-04-10T00:37:26.762Z,102149.09
2019-04-10T00:40:31.610Z,102150.69
2019-04-10T00:43:39.943Z,102155.33
2019-04-10T00:46:46.530Z,102156.30
2019-04-10T00:49:53.669Z,102161.67
2019-04-10T00:53:00.961Z,102160.70
2019-04-10T00:56:08.450Z,102170.83
2019-04-10T00:59:15.778Z,102170.83
2019-04-10T01:02:22.682Z,102173.53
2019-04-10T01:05:29.233Z,102167.53
2019-04-10T01:08:37.042Z,102173.64
2019-04-10T01:11:43.603Z,102176.35
2019-04-10T01:14:50.480Z,102172.56
2019-04-10T01:17:57.044Z,102171.70
2019-04-10T01:21:04.093Z,102168.03
2019-04-10T01:24:11.670Z,102166.70
2019-04-10T01:27:18.074Z,102166.70
2019-04-10T01:30:24.546Z,102170.72
2019-04-10T01:33:30.962Z,102173.66
2019-04-10T01:36:37.550Z,102175.83
2019-04-10T01:39:44.053Z,102175.83
2019-04-10T01:43:02.728Z,102156.77
2019-04-10T01:45:58.492Z,102190.61
2019-04-10T01:49:05.252Z,102186.48
2019-04-10T01:52:11.711Z,102190.86
2019-04-10T01:55:25.343Z,102193.67
2019-04-10T01:58:27.358Z,102189.16
2019-04-10T02:01:39.243Z,102197.32
2019-04-10T02:04:45.713Z,102191.61
2019-04-10T02:08:01.175Z,102197.30
2019-04-10T02:11:00.681Z,102208.31
2019-04-10T02:14:07.840Z,102197.80
2019-04-10T02:17:14.738Z,102203.91
2019-04-10T02:20:22.924Z,102206.63
2019-04-10T02:23:30.261Z,102204.41
2019-04-10T02:26:36.641Z,102208.31
2019-04-10T02:29:43.933Z,102210.39
2019-04-10T02:32:52.430Z,102210.50
2019-04-10T02:35:59.158Z,102210.65
2019-04-10T02:39:17.614Z,102221.39
2019-04-10T02:42:16.399Z,102218.56
2019-04-10T02:45:24.196Z,102225.42
2019-04-10T02:48:32.043Z,102223.09
2019-04-10T02:51:38.960Z,102212.20
2019-04-10T02:54:46.016Z,102223.44
2019-04-10T02:57:54.153Z,102222.97
2019-04-10T03:01:02.783Z,102220.78
2019-04-10T03:04:11.394Z,102222.51
2019-04-10T03:07:17.803Z,102231.98
2019-04-10T03:10:34.063Z,102232.48
2019-04-10T03:13:33.699Z,102233.83
2019-04-10T03:16:40.276Z,102234.09
2019-04-10T03:19:46.640Z,102225.67
2019-04-10T03:22:53.430Z,102230.91
2019-04-10T03:25:59.981Z,102240.94
2019-04-10T03:29:07.264Z,102240.08
2019-04-10T03:32:36.234Z,102229.45
2019-04-10T03:35:45.205Z,102236.16
2019-04-10T03:38:59.527Z,102235.70
2019-04-10T03:41:59.562Z,102242.05
2019-04-10T03:45:06.052Z,102243.40
2019-04-10T03:48:13.620Z,102249.98
2019-04-10T03:51:20.700Z,102249.10
2019-04-10T03:54:27.977Z,102265.22
2019-04-10T03:57:34.538Z,102256.83
2019-04-10T04:00:43.071Z,102265.60
2019-04-10T04:03:49.704Z,102263.53
2019-04-10T04:06:56.020Z,102258.66
2019-04-10T04:10:02.598Z,102274.25
2019-04-10T04:13:09.067Z,102261.19
2019-04-10T04:16:15.614Z,102268.13
2019-04-10T04:19:24.006Z,102269.70
2019-04-10T04:22:30.694Z,102269.32
2019-04-10T04:25:38.613Z,102266.78
2019-04-10T04:28:45.353Z,102281.20
2019-04-10T04:31:52.636Z,102274.64
2019-04-10T04:34:59.851Z,102277.69
2019-04-10T04:38:07.150Z,102283.06
2019-04-10T04:41:13.917Z,102278.41
2019-04-10T04:44:20.377Z,102284.02
2019-04-10T04:47:26.753Z,102291.10
2019-04-10T04:50:34.208Z,102297.95
2019-04-10T04:53:44.004Z,102284.28
2019-04-10T04:56:50.538Z,102292.69
2019-04-10T04:59:57.072Z,102298.95
2019-04-10T05:03:04.995Z,102299.80
2019-04-10T05:06:12.523Z,102305.28
2019-04-10T05:09:29.837Z,102307.97
2019-04-10T05:12:27.670Z,102308.86
2019-04-10T05:15:35.197Z,102312.50
2019-04-10T05:18:41.678Z,102313.95
2019-04-10T05:21:48.033Z,102317.02
2019-04-10T05:24:54.487Z,102319.34
2019-04-10T05:28:01.556Z,102316.03
2019-04-10T05:31:08.676Z,102323.73
2019-04-10T05:34:15.746Z,102321.41
2019-04-10T05:37:23.007Z,102316.76
2019-04-10T05:40:30.160Z,102328.39
2019-04-10T05:43:36.630Z,102327.87
2019-04-10T05:46:43.057Z,102327.28
2019-04-10T05:49:49.349Z,102327.28
2019-04-10T05:52:55.960Z,102333.64
2019-04-10T05:56:03.506Z,102337.75
2019-04-10T05:59:10.872Z,102332.15
2019-04-10T06:02:18.290Z,102338.52
2019-04-10T06:05:26.394Z,102340.71
2019-04-10T06:08:33.367Z,102347.33
2019-04-10T06:11:42.526Z,102354.50
2019-04-10T06:14:48.534Z,102342.53
2019-04-10T06:17:54.859Z,102346.81
2019-04-10T06:21:01.386Z,102343.67
2019-04-10T06:24:08.898Z,102348.81
2019-04-10T06:27:16.326Z,102349.66
2019-04-10T06:30:23.905Z,102354.64
2019-04-10T06:33:31.746Z,102349.05
2019-04-10T06:36:39.575Z,102358.83
2019-04-10T06:39:46.522Z,102355.05
2019-04-10T06:42:56.126Z,102360.88
2019-04-10T06:46:02.359Z,102359.56
2019-04-10T06:49:09.280Z,102372.14
2019-04-10T06:52:16.670Z,102358.61
2019-04-10T06:55:24.313Z,102368.86
2019-04-10T06:58:31.798Z,102362.63
2019-04-10T07:01:45.589Z,102360.45
2019-04-10T07:04:54.115Z,102367.17
2019-04-10T07:08:05.748Z,102363.25
2019-04-10T07:11:09.071Z,102362.71
2019-04-10T07:14:14.303Z,102376.92
2019-04-10T07:17:22.012Z,102374.97
2019-04-10T07:20:29.513Z,102374.97
2019-04-10T07:23:36.580Z,102375.23
2019-04-10T07:26:45.953Z,102383.64
2019-04-10T07:29:55.115Z,102387.67
2019-04-10T07:32:59.331Z,102392.49
2019-04-10T07:36:10.960Z,102394.22
2019-04-10T07:39:15.155Z,102390.67
2019-04-10T07:42:30.424Z,102387.91
2019-04-10T07:45:29.713Z,102394.88
2019-04-10T07:48:36.078Z,102397.69
2019-04-10T07:51:42.579Z,102396.45
2019-04-10T07:54:50.326Z,102402.43
2019-04-10T07:57:57.386Z,102404.18
2019-04-10T08:01:03.838Z,102405.27
2019-04-10T08:04:10.487Z,102411.86
2019-04-10T08:07:28.569Z,102418.35
2019-04-10T08:10:26.408Z,102413.59
2019-04-10T08:13:33.142Z,102417.38
2019-04-10T08:16:39.635Z,102423.63
2019-04-10T08:19:46.120Z,102418.02
2019-04-10T08:22:53.289Z,102425.58
2019-04-10T08:26:00.690Z,102426.08
2019-04-10T08:29:07.775Z,102424.69
2019-04-10T08:32:14.411Z,102432.57
2019-04-10T08:35:21.032Z,102432.63
2019-04-10T08:38:28.037Z,102438.28
2019-04-10T08:41:35.577Z,102437.06
2019-04-10T08:44:42.450Z,102448.04
2019-04-10T08:47:48.974Z,102438.05
2019-04-10T08:50:56.717Z,102444.03
2019-04-10T08:54:03.320Z,102442.94
2019-04-10T08:57:11.191Z,102442.72
2019-04-10T09:00:18.660Z,102452.07
2019-04-10T09:03:25.135Z,102436.71
2019-04-10T09:06:33.616Z,102439.93
2019-04-10T09:09:41.354Z,102443.45
2019-04-10T09:12:49.245Z,102446.90
2019-04-10T09:15:56.208Z,102454.64
2019-04-10T09:19:03.487Z,102452.83
2019-04-10T09:22:10.074Z,102464.45
2019-04-10T09:25:17.939Z,102462.59
2019-04-10T09:28:24.503Z,102455.42
2019-04-10T09:31:31.554Z,102467.91
2019-04-10T09:34:38.044Z,102463.36
2019-04-10T09:37:44.608Z,102466.17
2019-04-10T09:40:51.068Z,102462.40
2019-04-10T09:43:58.280Z,102466.69
2019-04-10T09:47:05.522Z,102468.76
2019-04-10T09:50:13.113Z,102471.73
2019-04-10T09:53:19.593Z,102474.03
2019-04-10T09:56:25.925Z,102473.45
2019-04-10T09:59:36.454Z,102463.68
2019-04-10T10:02:40.427Z,102477.00
2019-04-10T10:05:47.820Z,102483.11
2019-04-10T10:08:54.358Z,102484.56
2019-04-10T10:12:01.055Z,102492.29
2019-04-10T10:15:09.850Z,102493.11
2019-04-10T10:18:17.124Z,102492.85
2019-04-10T10:21:24.138Z,102500.80
2019-04-10T10:24:30.915Z,102489.15
2019-04-10T10:27:38.554Z,102496.53
2019-04-10T10:30:45.048Z,102503.63
2019-04-10T10:33:52.218Z,102503.63
2019-04-10T10:36:59.980Z,102515.98
2019-04-10T10:40:08.967Z,102518.88
2019-04-10T10:43:16.874Z,102514.87
2019-04-10T10:46:23.196Z,102508.17
2019-04-10T10:49:30.655Z,102523.38
2019-04-10T10:52:37.627Z,102514.69
2019-04-10T10:55:44.093Z,102517.77
2019-04-10T10:58:50.728Z,102516.16
2019-04-10T11:02:00.421Z,102521.53
2019-04-10T11:05:07.366Z,102521.21
2019-04-10T11:08:15.351Z,102535.27
2019-04-10T11:11:24.055Z,102520.64
2019-04-10T11:14:31.503Z,102537.27
2019-04-10T11:17:38.746Z,102538.80
2019-04-10T11:20:47.923Z,102539.95
2019-04-10T11:23:55.623Z,102546.25
2019-04-10T11:27:02.811Z,102541.82
2019-04-10T11:30:10.145Z,102541.98
2019-04-10T11:33:17.579Z,102541.19
2019-04-10T11:36:28.085Z,102533.50
2019-04-10T11:39:35.937Z,102544.50
2019-04-10T11:42:44.592Z,102552.82
2019-04-10T11:45:52.852Z,102556.02
2019-04-10T11:49:00.760Z,102551.98
2019-04-10T11:52:07.399Z,102565.06
2019-04-10T11:55:19.778Z,102561.91
2019-04-10T11:58:25.231Z,102564.63
2019-04-10T12:01:34.223Z,102559.34
2019-04-10T12:04:50.345Z,102565.22
2019-04-10T12:08:09.550Z,102561.06
2019-04-10T12:14:05.062Z,102559.97
2019-04-10T12:17:11.694Z,102566.81
2019-04-10T12:20:18.851Z,102569.10
2019-04-10T12:23:25.248Z,102565.06
2019-04-10T12:26:32.576Z,102580.88
2019-04-10T12:29:38.911Z,102590.06
2019-04-10T12:32:47.199Z,102595.16
2019-04-10T12:35:54.122Z,102580.59
2019-04-10T12:39:00.526Z,102598.20
2019-04-10T12:42:08.479Z,102587.22
2019-04-10T12:45:15.814Z,102596.81
2019-04-10T12:48:23.051Z,102596.98
2019-04-10T12:51:29.769Z,102594.33
2019-04-10T12:54:36.217Z,102601.33
2019-04-10T12:57:43.478Z,102601.45
2019-04-10T13:00:50.701Z,102585.06
2019-04-10T13:03:58.116Z,102590.09
2019-04-10T13:07:05.411Z,102593.86
2019-04-10T13:10:12.823Z,102610.75
2019-04-10T13:13:19.968Z,102607.67
2019-04-10T13:16:26.450Z,102616.32
2019-04-10T13:19:34.108Z,102613.55
2019-04-10T13:22:40.987Z,102611.11
2019-04-10T13:25:55.522Z,102613.89
2019-04-10T13:28:58.028Z,102611.59
2019-04-10T13:32:06.292Z,102603.64
2019-04-10T13:35:13.657Z,102611.02
2019-04-10T13:38:28.656Z,102603.66
2019-04-10T13:41:28.327Z,102612.16
2019-04-10T13:44:34.923Z,102613.45
2019-04-10T13:47:42.791Z,102613.21
2019-04-10T13:50:50.822Z,102609.02
2019-04-10T13:53:58.526Z,102608.44
2019-04-10T13:57:07.720Z,102614.33
2019-04-10T14:00:23.948Z,102618.00
2019-04-10T14:03:30.362Z,102621.81
2019-04-10T14:06:37.987Z,102623.89
2019-04-10T14:09:49.664Z,102633.63
2019-04-10T14:12:53.477Z,102631.18
2019-04-10T14:16:00.148Z,102638.01
2019-04-10T14:19:07.720Z,102639.28
2019-04-10T14:22:14.121Z,102640.24
2019-04-10T14:25:29.692Z,102648.32
2019-04-10T14:28:37.424Z,102651.74
2019-04-10T14:31:49.021Z,102633.52
2019-04-10T14:34:55.693Z,102650.95
2019-04-10T14:38:03.021Z,102647.97
2019-04-10T14:41:09.505Z,102648.13
2019-04-10T14:44:15.959Z,102653.86
2019-04-10T14:47:23.325Z,102654.66
2019-04-10T14:50:30.248Z,102659.52
2019-04-10T14:53:37.261Z,102667.23
2019-04-10T14:56:43.725Z,102676.48
2019-04-10T14:59:50.621Z,102666.67
2019-04-10T15:02:58.016Z,102668.23
2019-04-10T15:06:05.060Z,102660.64
2019-04-10T15:09:25.385Z,102672.22
2019-04-10T15:12:28.520Z,102683.22
2019-04-10T15:15:34.927Z,102684.94
2019-04-10T15:18:41.392Z,102684.58
2019-04-10T15:21:47.845Z,102664.31
2019-04-10T15:24:54.375Z,102684.01
2019-04-10T15:28:02.247Z,102698.33
2019-04-10T15:31:08.846Z,102696.24
2019-04-10T15:34:16.192Z,102681.75
2019-04-10T15:37:22.855Z,102678.38
2019-04-10T15:40:30.319Z,102688.39
2019-04-10T15:43:37.204Z,102692.02
2019-04-10T15:46:43.591Z,102687.29
2019-04-10T15:49:49.898Z,102698.55
2019-04-10T15:52:56.357Z,102701.48
2019-04-10T15:56:03.391Z,102698.80
2019-04-10T15:59:10.188Z,102698.86
2019-04-10T16:02:17.132Z,102713.56
2019-04-10T16:05:23.709Z,102704.58
2019-04-10T16:08:30.792Z,102700.42
2019-04-10T16:11:46.170Z,102705.86
2019-04-10T16:14:52.819Z,102697.32
2019-04-10T16:18:05.268Z,102695.05
2019-04-10T16:21:12.500Z,102707.52
2019-04-10T16:24:18.844Z,102699.67
2019-04-10T16:27:25.215Z,102705.91
2019-04-10T16:30:33.084Z,102698.27
2019-04-10T16:33:39.760Z,102702.90
2019-04-10T16:36:46.194Z,102701.16
2019-04-10T16:40:00.320Z,102700.42
2019-04-10T16:43:01.558Z,102692.57
2019-04-10T16:46:07.944Z,102699.08
2019-04-10T16:49:14.778Z,102700.42
2019-04-10T16:52:21.397Z,102711.37
2019-04-10T16:55:29.085Z,102717.73
2019-04-10T16:58:36.661Z,102718.36
2019-04-10T17:01:43.087Z,102715.64
2019-04-10T17:04:50.136Z,102724.91
2019-04-10T17:07:57.331Z,102720.34
2019-04-10T17:11:05.642Z,102729.95
2019-04-10T17:14:12.931Z,102732.56
2019-04-10T17:17:20.177Z,102724.85
2019-04-10T17:20:28.660Z,102624.19
2019-04-10T17:23:36.424Z,102732.61
2019-04-10T17:26:43.417Z,102732.61
2019-04-10T17:29:51.558Z,102731.20
2019-04-10T17:32:58.444Z,102744.22
2019-04-10T17:36:05.112Z,102745.97
2019-04-10T17:39:16.608Z,102744.56
2019-04-10T17:42:24.103Z,102746.17
2019-04-10T17:45:31.612Z,102747.59
2019-04-10T17:48:39.249Z,102753.25
2019-04-10T17:51:46.915Z,102768.41
2019-04-10T17:54:53.460Z,102747.67
2019-04-10T17:58:01.036Z,102756.72
2019-04-10T18:01:10.954Z,102759.08
2019-04-10T18:04:17.928Z,102773.31
2019-04-10T18:07:24.880Z,102777.61
2019-04-10T18:10:43.937Z,102763.91
2019-04-10T18:13:39.449Z,102791.27
2019-04-10T18:16:47.875Z,102791.27
2019-04-10T18:19:54.636Z,102791.03
2019-04-10T18:23:01.230Z,102801.34
2019-04-10T18:26:08.690Z,102807.94
2019-04-10T18:29:17.752Z,102803.67
2019-04-10T18:32:25.415Z,102809.08
2019-04-10T18:35:33.669Z,102810.22
2019-04-10T18:38:41.974Z,102820.96
2019-04-10T18:41:48.606Z,102816.27
2019-04-10T18:44:55.631Z,102820.45
2019-04-10T18:48:03.728Z,102813.94
2019-04-10T18:51:12.141Z,102817.53
2019-04-10T18:54:18.578Z,102812.75
2019-04-10T18:57:26.133Z,102809.47
2019-04-10T19:01:05.146Z,102808.72
2019-04-10T19:04:24.543Z,102820.25
2019-04-10T19:07:30.930Z,102818.87
2019-04-10T19:10:37.464Z,102819.94
2019-04-10T19:13:46.735Z,102828.62
2019-04-10T19:16:53.244Z,102818.35
2019-04-10T19:19:59.638Z,102819.78
2019-04-10T19:23:08.863Z,102824.32
2019-04-10T19:26:20.974Z,102820.02
2019-04-10T19:29:29.672Z,102812.75
2019-04-10T19:32:37.609Z,102818.48
2019-04-10T19:35:45.870Z,102818.31
2019-04-10T19:39:02.146Z,102824.39
2019-04-10T19:42:15.378Z,102824.36
2019-04-10T19:45:22.252Z,102826.17
2019-04-10T19:48:28.744Z,102826.17
2019-04-10T19:51:36.317Z,102822.38
2019-04-10T19:54:43.937Z,102821.40
2019-04-10T19:57:50.413Z,102822.15
2019-04-10T20:00:57.227Z,102826.77
2019-04-10T20:04:03.968Z,102826.25
2019-04-10T20:07:11.133Z,102827.72
2019-04-10T20:10:17.590Z,102840.70
2019-04-10T20:13:24.857Z,102830.88
2019-04-10T20:16:31.333Z,102825.78
2019-04-10T20:19:38.373Z,102833.44
2019-04-10T20:22:45.885Z,102832.53
2019-04-10T20:25:52.497Z,102838.61
2019-04-10T20:28:59.161Z,102827.44
2019-04-10T20:32:05.887Z,102827.32
2019-04-10T20:35:12.522Z,102825.39
2019-04-10T20:38:19.759Z,102831.31
2019-04-10T20:41:26.674Z,102829.77
2019-04-10T20:44:33.201Z,102838.81
2019-04-10T20:47:39.516Z,102837.27
2019-04-10T20:50:46.044Z,102843.34
2019-04-10T20:53:52.641Z,102843.19
2019-04-10T20:56:59.264Z,102840.02
2019-04-10T21:00:07.664Z,102839.05
2019-04-10T21:03:15.552Z,102856.44
2019-04-10T21:06:21.893Z,102854.59
2019-04-10T21:09:28.371Z,102860.52
2019-04-10T21:12:34.633Z,102863.20
2019-04-10T21:15:42.241Z,102856.48
2019-04-10T21:18:48.646Z,102864.15
2019-04-10T21:21:55.380Z,102867.03
2019-04-10T21:25:02.876Z,102871.53
2019-04-10T21:28:09.732Z,102876.64
2019-04-10T21:31:52.528Z,102876.64
2019-04-10T21:34:59.755Z,102873.97
2019-04-10T21:38:06.846Z,102882.38
2019-04-10T21:41:15.602Z,102878.19
2019-04-10T21:44:24.706Z,102870.92
2019-04-10T21:47:31.236Z,102874.16
2019-04-10T21:50:37.752Z,102874.96
2019-04-10T21:53:45.153Z,102880.41
2019-04-10T21:56:51.596Z,102878.97
2019-04-10T21:59:58.034Z,102873.09
2019-04-10T22:03:04.959Z,102874.19
2019-04-10T22:06:43.428Z,102879.74
2019-04-10T22:09:56.694Z,102882.06
2019-04-10T22:13:03.748Z,102876.00
2019-04-10T22:16:13.589Z,102875.72
2019-04-10T22:19:21.025Z,102879.94
2019-04-10T22:22:27.489Z,102864.95
2019-04-10T22:25:35.221Z,102866.30
2019-04-10T22:28:43.515Z,102872.11
2019-04-10T22:31:51.298Z,102863.84
2019-04-10T22:34:58.762Z,102874.09
2019-04-10T22:38:05.513Z,102868.84
2019-04-10T22:41:20.843Z,102865.28
2019-04-10T22:44:33.776Z,102876.12
2019-04-10T22:47:29.684Z,102870.39
2019-04-10T22:50:36.461Z,102867.50
2019-04-10T22:53:43.738Z,102862.52
2019-04-10T22:56:50.978Z,102875.27
2019-04-10T22:59:57.478Z,102867.69
2019-04-10T23:03:04.075Z,102862.53
2019-04-10T23:06:11.525Z,102868.20
2019-04-10T23:09:18.368Z,102869.64
2019-04-10T23:12:24.717Z,102876.12
2019-04-10T23:15:31.491Z,102869.59
2019-04-10T23:18:37.937Z,102859.81
2019-04-10T23:21:45.514Z,102860.98
2019-04-10T23:24:51.918Z,102862.55
2019-04-10T23:27:58.908Z,102862.55
2019-04-10T23:31:05.714Z,102870.56
2019-04-10T23:34:12.780Z,102876.70
2019-04-10T23:37:19.134Z,102892.00
2019-04-10T23:40:25.723Z,102896.23
2019-04-10T23:43:31.968Z,102894.20
2019-04-10T23:46:38.938Z,102895.65
2019-04-10T23:49:45.833Z,102902.25
2019-04-10T23:52:52.457Z,102896.59
2019-04-10T23:55:58.808Z,102911.19
2019-04-10T23:59:06.567Z,102903.89
